sensor_id;sensor_type;location;lat;lon;timestamp;temperature;humidity
26262;DHT22;13988;52.446;13.280;2023-04-24T00:00:13;10.70;99.90
26262;DHT22;13988;52.446;13.280;2023-04-24T00:02:40;10.70;99.90
26262;DHT22;13988;52.446;13.280;2023-04-24T00:05:07;10.70;99.90
26262;DHT22;13988;52.446;13.280;2023-04-24T00:07:34;10.70;99.90
26262;DHT22;13988;52.446;13.280;2023-04-24T00:09:59;10.70;99.90
26262;DHT22;13988;52.446;13.280;2023-04-24T00:12:25;10.70;99.90
26262;DHT22;13988;52.446;13.280;2023-04-24T00:14:51;10.60;99.90
26262;DHT22;13988;52.446;13.280;2023-04-24T00:17:17;10.60;99.90
26262;DHT22;13988;52.446;13.280;2023-04-24T00:19:46;10.60;99.90
26262;DHT22;13988;52.446;13.280;2023-04-24T00:22:11;10.50;99.90
26262;DHT22;13988;52.446;13.280;2023-04-24T00:24:39;10.40;99.90
26262;DHT22;13988;52.446;13.280;2023-04-24T00:27:04;10.40;99.90
26262;DHT22;13988;52.446;13.280;2023-04-24T00:29:30;10.40;99.90
26262;DHT22;13988;52.446;13.280;2023-04-24T00:31:56;10.40;99.90
26262;DHT22;13988;52.446;13.280;2023-04-24T00:34:21;10.40;99.90
26262;DHT22;13988;52.446;13.280;2023-04-24T00:36:47;10.50;99.90
26262;DHT22;13988;52.446;13.280;2023-04-24T00:39:15;10.50;99.90
26262;DHT22;13988;52.446;13.280;2023-04-24T00:41:42;10.60;99.90
26262;DHT22;13988;52.446;13.280;2023-04-24T00:44:07;10.60;99.90
26262;DHT22;13988;52.446;13.280;2023-04-24T00:46:33;10.60;99.90
26262;DHT22;13988;52.446;13.280;2023-04-24T00:48:59;10.60;99.90
26262;DHT22;13988;52.446;13.280;2023-04-24T00:51:25;10.70;99.90
26262;DHT22;13988;52.446;13.280;2023-04-24T00:53:50;10.60;99.90
26262;DHT22;13988;52.446;13.280;2023-04-24T00:56:17;10.60;99.90
26262;DHT22;13988;52.446;13.280;2023-04-24T00:58:43;10.70;99.90
26262;DHT22;13988;52.446;13.280;2023-04-24T01:01:10;10.70;99.90
26262;DHT22;13988;52.446;13.280;2023-04-24T01:03:37;10.70;99.90
26262;DHT22;13988;52.446;13.280;2023-04-24T01:06:04;10.70;99.90
26262;DHT22;13988;52.446;13.280;2023-04-24T01:08:30;10.80;99.90
26262;DHT22;13988;52.446;13.280;2023-04-24T01:10:57;10.80;99.90
26262;DHT22;13988;52.446;13.280;2023-04-24T01:13:23;10.80;99.90
26262;DHT22;13988;52.446;13.280;2023-04-24T01:15:49;10.90;99.90
26262;DHT22;13988;52.446;13.280;2023-04-24T01:18:15;10.90;99.90
26262;DHT22;13988;52.446;13.280;2023-04-24T01:20:42;11.00;99.90
26262;DHT22;13988;52.446;13.280;2023-04-24T01:23:09;11.00;99.90
26262;DHT22;13988;52.446;13.280;2023-04-24T01:25:36;11.10;99.90
26262;DHT22;13988;52.446;13.280;2023-04-24T01:28:02;11.00;99.90
26262;DHT22;13988;52.446;13.280;2023-04-24T01:30:29;11.00;99.90
26262;DHT22;13988;52.446;13.280;2023-04-24T01:32:55;10.90;99.90
26262;DHT22;13988;52.446;13.280;2023-04-24T01:35:21;10.90;99.90
26262;DHT22;13988;52.446;13.280;2023-04-24T01:37:47;10.90;99.90
26262;DHT22;13988;52.446;13.280;2023-04-24T01:40:13;10.80;99.90
26262;DHT22;13988;52.446;13.280;2023-04-24T01:42:41;10.80;99.90
26262;DHT22;13988;52.446;13.280;2023-04-24T01:45:09;10.80;99.90
26262;DHT22;13988;52.446;13.280;2023-04-24T01:47:35;10.80;99.90
26262;DHT22;13988;52.446;13.280;2023-04-24T01:50:01;10.80;99.90
26262;DHT22;13988;52.446;13.280;2023-04-24T01:52:27;10.70;99.90
26262;DHT22;13988;52.446;13.280;2023-04-24T01:54:54;10.80;99.90
26262;DHT22;13988;52.446;13.280;2023-04-24T01:57:21;10.80;99.90
26262;DHT22;13988;52.446;13.280;2023-04-24T01:59:47;10.80;99.90
26262;DHT22;13988;52.446;13.280;2023-04-24T02:02:13;10.80;99.90
26262;DHT22;13988;52.446;13.280;2023-04-24T02:04:39;10.80;99.90
26262;DHT22;13988;52.446;13.280;2023-04-24T02:07:05;10.80;99.90
26262;DHT22;13988;52.446;13.280;2023-04-24T02:09:30;10.80;99.90
26262;DHT22;13988;52.446;13.280;2023-04-24T02:11:56;10.80;99.90
26262;DHT22;13988;52.446;13.280;2023-04-24T02:14:21;10.70;99.90
26262;DHT22;13988;52.446;13.280;2023-04-24T02:16:47;10.70;99.90
26262;DHT22;13988;52.446;13.280;2023-04-24T02:19:13;10.70;99.90
26262;DHT22;13988;52.446;13.280;2023-04-24T02:21:38;10.70;99.90
26262;DHT22;13988;52.446;13.280;2023-04-24T02:24:04;10.60;99.90
26262;DHT22;13988;52.446;13.280;2023-04-24T02:26:29;10.60;99.90
26262;DHT22;13988;52.446;13.280;2023-04-24T02:28:57;10.60;99.90
26262;DHT22;13988;52.446;13.280;2023-04-24T02:31:22;10.70;99.90
26262;DHT22;13988;52.446;13.280;2023-04-24T02:33:48;10.70;99.90
26262;DHT22;13988;52.446;13.280;2023-04-24T02:36:14;10.60;99.90
26262;DHT22;13988;52.446;13.280;2023-04-24T02:38:39;10.60;99.90
26262;DHT22;13988;52.446;13.280;2023-04-24T02:41:05;10.60;99.90
26262;DHT22;13988;52.446;13.280;2023-04-24T02:43:32;10.70;99.90
26262;DHT22;13988;52.446;13.280;2023-04-24T02:45:58;10.70;99.90
26262;DHT22;13988;52.446;13.280;2023-04-24T02:48:23;10.70;99.90
26262;DHT22;13988;52.446;13.280;2023-04-24T02:50:49;10.70;99.90
26262;DHT22;13988;52.446;13.280;2023-04-24T02:53:16;10.70;99.90
26262;DHT22;13988;52.446;13.280;2023-04-24T02:55:41;10.70;99.90
26262;DHT22;13988;52.446;13.280;2023-04-24T02:58:07;10.70;99.90
26262;DHT22;13988;52.446;13.280;2023-04-24T03:00:32;10.70;99.90
26262;DHT22;13988;52.446;13.280;2023-04-24T03:02:58;10.80;99.90
26262;DHT22;13988;52.446;13.280;2023-04-24T03:05:24;10.70;99.90
26262;DHT22;13988;52.446;13.280;2023-04-24T03:07:49;10.70;99.90
26262;DHT22;13988;52.446;13.280;2023-04-24T03:10:15;10.80;99.90
26262;DHT22;13988;52.446;13.280;2023-04-24T03:12:41;10.80;99.90
26262;DHT22;13988;52.446;13.280;2023-04-24T03:15:07;10.80;99.90
26262;DHT22;13988;52.446;13.280;2023-04-24T03:17:33;10.80;99.90
26262;DHT22;13988;52.446;13.280;2023-04-24T03:19:58;10.80;99.90
26262;DHT22;13988;52.446;13.280;2023-04-24T03:22:24;10.80;99.90
26262;DHT22;13988;52.446;13.280;2023-04-24T03:24:49;10.90;99.90
26262;DHT22;13988;52.446;13.280;2023-04-24T03:27:15;10.80;99.90
26262;DHT22;13988;52.446;13.280;2023-04-24T03:29:40;10.90;99.90
26262;DHT22;13988;52.446;13.280;2023-04-24T03:32:06;10.90;99.90
26262;DHT22;13988;52.446;13.280;2023-04-24T03:34:32;10.90;99.90
26262;DHT22;13988;52.446;13.280;2023-04-24T03:36:57;10.90;99.90
26262;DHT22;13988;52.446;13.280;2023-04-24T03:39:23;10.90;99.90
26262;DHT22;13988;52.446;13.280;2023-04-24T03:41:50;10.90;99.90
26262;DHT22;13988;52.446;13.280;2023-04-24T03:44:16;10.90;99.90
26262;DHT22;13988;52.446;13.280;2023-04-24T03:46:41;11.00;99.90
26262;DHT22;13988;52.446;13.280;2023-04-24T03:49:07;10.90;99.90
26262;DHT22;13988;52.446;13.280;2023-04-24T03:51:32;10.90;99.90
26262;DHT22;13988;52.446;13.280;2023-04-24T03:53:58;10.90;99.90
26262;DHT22;13988;52.446;13.280;2023-04-24T03:56:23;10.90;99.90
26262;DHT22;13988;52.446;13.280;2023-04-24T03:58:49;10.90;99.90
26262;DHT22;13988;52.446;13.280;2023-04-24T04:01:15;10.90;99.90
26262;DHT22;13988;52.446;13.280;2023-04-24T04:03:41;10.90;99.90
26262;DHT22;13988;52.446;13.280;2023-04-24T04:06:07;10.90;99.90
26262;DHT22;13988;52.446;13.280;2023-04-24T04:08:32;10.90;99.90
26262;DHT22;13988;52.446;13.280;2023-04-24T04:10:58;10.90;99.90
26262;DHT22;13988;52.446;13.280;2023-04-24T04:13:24;10.90;99.90
26262;DHT22;13988;52.446;13.280;2023-04-24T04:15:49;10.90;99.90
26262;DHT22;13988;52.446;13.280;2023-04-24T04:18:15;10.90;99.90
26262;DHT22;13988;52.446;13.280;2023-04-24T04:20:41;10.90;99.90
26262;DHT22;13988;52.446;13.280;2023-04-24T04:23:07;10.90;99.90
26262;DHT22;13988;52.446;13.280;2023-04-24T04:25:32;10.90;99.90
26262;DHT22;13988;52.446;13.280;2023-04-24T04:27:58;10.90;99.90
26262;DHT22;13988;52.446;13.280;2023-04-24T04:30:25;11.00;99.90
26262;DHT22;13988;52.446;13.280;2023-04-24T04:32:51;11.20;99.90
26262;DHT22;13988;52.446;13.280;2023-04-24T04:35:17;11.20;99.90
26262;DHT22;13988;52.446;13.280;2023-04-24T04:37:42;11.10;99.90
26262;DHT22;13988;52.446;13.280;2023-04-24T04:40:08;11.10;99.90
26262;DHT22;13988;52.446;13.280;2023-04-24T04:42:37;11.20;99.90
26262;DHT22;13988;52.446;13.280;2023-04-24T04:45:09;11.20;99.90
26262;DHT22;13988;52.446;13.280;2023-04-24T04:47:35;11.20;99.90
26262;DHT22;13988;52.446;13.280;2023-04-24T04:50:01;11.20;99.90
26262;DHT22;13988;52.446;13.280;2023-04-24T04:52:26;11.20;99.90
26262;DHT22;13988;52.446;13.280;2023-04-24T04:54:52;11.20;99.90
26262;DHT22;13988;52.446;13.280;2023-04-24T04:57:18;11.30;99.90
26262;DHT22;13988;52.446;13.280;2023-04-24T04:59:44;11.40;99.90
26262;DHT22;13988;52.446;13.280;2023-04-24T05:02:10;11.40;99.90
26262;DHT22;13988;52.446;13.280;2023-04-24T05:04:35;11.40;99.90
26262;DHT22;13988;52.446;13.280;2023-04-24T05:07:01;11.40;99.90
26262;DHT22;13988;52.446;13.280;2023-04-24T05:09:26;11.50;99.90
26262;DHT22;13988;52.446;13.280;2023-04-24T05:11:54;11.50;99.90
26262;DHT22;13988;52.446;13.280;2023-04-24T05:14:20;11.60;99.90
26262;DHT22;13988;52.446;13.280;2023-04-24T05:16:47;11.60;99.90
26262;DHT22;13988;52.446;13.280;2023-04-24T05:19:12;11.60;99.90
26262;DHT22;13988;52.446;13.280;2023-04-24T05:21:39;11.70;99.90
26262;DHT22;13988;52.446;13.280;2023-04-24T05:24:06;11.70;99.90
26262;DHT22;13988;52.446;13.280;2023-04-24T05:26:32;11.70;99.90
26262;DHT22;13988;52.446;13.280;2023-04-24T05:28:58;11.70;99.90
26262;DHT22;13988;52.446;13.280;2023-04-24T05:31:23;11.80;99.90
26262;DHT22;13988;52.446;13.280;2023-04-24T05:33:49;11.80;99.90
26262;DHT22;13988;52.446;13.280;2023-04-24T05:36:15;11.90;99.90
26262;DHT22;13988;52.446;13.280;2023-04-24T05:38:40;11.90;99.90
26262;DHT22;13988;52.446;13.280;2023-04-24T05:41:06;11.90;99.90
26262;DHT22;13988;52.446;13.280;2023-04-24T05:43:31;11.90;99.90
26262;DHT22;13988;52.446;13.280;2023-04-24T05:45:57;12.00;99.90
26262;DHT22;13988;52.446;13.280;2023-04-24T05:48:23;12.10;99.90
26262;DHT22;13988;52.446;13.280;2023-04-24T05:50:49;12.10;99.90
26262;DHT22;13988;52.446;13.280;2023-04-24T05:53:14;12.20;99.90
26262;DHT22;13988;52.446;13.280;2023-04-24T05:55:40;12.90;99.90
26262;DHT22;13988;52.446;13.280;2023-04-24T05:58:05;13.50;99.90
26262;DHT22;13988;52.446;13.280;2023-04-24T06:00:31;13.50;99.90
26262;DHT22;13988;52.446;13.280;2023-04-24T06:02:57;13.70;99.90
26262;DHT22;13988;52.446;13.280;2023-04-24T06:05:24;14.10;99.90
26262;DHT22;13988;52.446;13.280;2023-04-24T06:07:50;14.20;99.90
26262;DHT22;13988;52.446;13.280;2023-04-24T06:10:16;14.10;99.90
26262;DHT22;13988;52.446;13.280;2023-04-24T06:12:41;13.50;99.90
26262;DHT22;13988;52.446;13.280;2023-04-24T06:15:07;13.50;99.90
26262;DHT22;13988;52.446;13.280;2023-04-24T06:17:33;13.70;99.90
26262;DHT22;13988;52.446;13.280;2023-04-24T06:19:59;14.60;99.90
26262;DHT22;13988;52.446;13.280;2023-04-24T06:22:24;15.60;99.90
26262;DHT22;13988;52.446;13.280;2023-04-24T06:24:50;15.70;99.90
26262;DHT22;13988;52.446;13.280;2023-04-24T06:27:15;16.70;99.90
26262;DHT22;13988;52.446;13.280;2023-04-24T06:29:41;16.60;99.90
26262;DHT22;13988;52.446;13.280;2023-04-24T06:32:07;17.50;99.90
26262;DHT22;13988;52.446;13.280;2023-04-24T06:34:33;16.20;99.90
26262;DHT22;13988;52.446;13.280;2023-04-24T06:36:59;16.00;99.90
26262;DHT22;13988;52.446;13.280;2023-04-24T06:39:25;15.90;99.90
26262;DHT22;13988;52.446;13.280;2023-04-24T06:41:51;16.60;99.90
26262;DHT22;13988;52.446;13.280;2023-04-24T06:44:16;16.70;99.90
26262;DHT22;13988;52.446;13.280;2023-04-24T06:46:42;16.00;99.90
26262;DHT22;13988;52.446;13.280;2023-04-24T06:49:08;16.40;99.90
26262;DHT22;13988;52.446;13.280;2023-04-24T06:51:33;16.60;99.90
26262;DHT22;13988;52.446;13.280;2023-04-24T06:53:59;17.30;99.90
26262;DHT22;13988;52.446;13.280;2023-04-24T06:56:26;16.70;99.90
26262;DHT22;13988;52.446;13.280;2023-04-24T06:58:52;16.20;99.90
26262;DHT22;13988;52.446;13.280;2023-04-24T07:01:17;16.60;99.90
26262;DHT22;13988;52.446;13.280;2023-04-24T07:03:43;17.40;99.90
26262;DHT22;13988;52.446;13.280;2023-04-24T07:06:09;16.30;99.90
26262;DHT22;13988;52.446;13.280;2023-04-24T07:08:38;17.40;99.90
26262;DHT22;13988;52.446;13.280;2023-04-24T07:11:04;17.50;99.90
26262;DHT22;13988;52.446;13.280;2023-04-24T07:13:30;18.20;99.90
26262;DHT22;13988;52.446;13.280;2023-04-24T07:15:55;19.50;99.90
26262;DHT22;13988;52.446;13.280;2023-04-24T07:18:22;19.80;99.90
26262;DHT22;13988;52.446;13.280;2023-04-24T07:20:48;20.10;99.90
26262;DHT22;13988;52.446;13.280;2023-04-24T07:23:15;19.30;99.90
26262;DHT22;13988;52.446;13.280;2023-04-24T07:25:41;19.70;99.90
26262;DHT22;13988;52.446;13.280;2023-04-24T07:28:07;19.10;99.90
26262;DHT22;13988;52.446;13.280;2023-04-24T07:30:32;18.30;99.90
26262;DHT22;13988;52.446;13.280;2023-04-24T07:32:58;18.20;99.90
26262;DHT22;13988;52.446;13.280;2023-04-24T07:35:25;16.80;99.90
26262;DHT22;13988;52.446;13.280;2023-04-24T07:37:54;16.10;99.90
26262;DHT22;13988;52.446;13.280;2023-04-24T07:40:21;16.10;99.90
26262;DHT22;13988;52.446;13.280;2023-04-24T07:42:47;15.80;99.90
26262;DHT22;13988;52.446;13.280;2023-04-24T07:45:14;16.00;99.90
26262;DHT22;13988;52.446;13.280;2023-04-24T07:47:41;15.80;99.90
26262;DHT22;13988;52.446;13.280;2023-04-24T07:50:09;16.20;99.90
26262;DHT22;13988;52.446;13.280;2023-04-24T07:52:35;16.30;99.90
26262;DHT22;13988;52.446;13.280;2023-04-24T07:55:01;16.30;99.90
26262;DHT22;13988;52.446;13.280;2023-04-24T07:57:28;15.90;99.90
26262;DHT22;13988;52.446;13.280;2023-04-24T07:59:54;16.00;99.90
26262;DHT22;13988;52.446;13.280;2023-04-24T08:02:19;16.20;99.90
26262;DHT22;13988;52.446;13.280;2023-04-24T08:04:47;16.30;99.90
26262;DHT22;13988;52.446;13.280;2023-04-24T08:07:12;16.40;99.90
26262;DHT22;13988;52.446;13.280;2023-04-24T08:09:38;16.20;99.90
26262;DHT22;13988;52.446;13.280;2023-04-24T08:12:04;16.10;99.90
26262;DHT22;13988;52.446;13.280;2023-04-24T08:14:30;16.00;99.90
26262;DHT22;13988;52.446;13.280;2023-04-24T08:16:55;15.90;99.90
26262;DHT22;13988;52.446;13.280;2023-04-24T08:19:21;16.00;99.90
26262;DHT22;13988;52.446;13.280;2023-04-24T08:21:47;16.10;99.90
26262;DHT22;13988;52.446;13.280;2023-04-24T08:24:13;16.20;99.90
26262;DHT22;13988;52.446;13.280;2023-04-24T08:26:39;15.90;99.90
26262;DHT22;13988;52.446;13.280;2023-04-24T08:29:05;16.20;99.90
26262;DHT22;13988;52.446;13.280;2023-04-24T08:31:32;16.60;99.90
26262;DHT22;13988;52.446;13.280;2023-04-24T08:33:58;16.80;99.90
26262;DHT22;13988;52.446;13.280;2023-04-24T08:36:25;16.60;99.90
26262;DHT22;13988;52.446;13.280;2023-04-24T08:38:51;16.50;99.90
26262;DHT22;13988;52.446;13.280;2023-04-24T08:41:18;16.60;99.90
26262;DHT22;13988;52.446;13.280;2023-04-24T08:43:43;16.40;99.90
26262;DHT22;13988;52.446;13.280;2023-04-24T08:46:13;16.50;99.90
26262;DHT22;13988;52.446;13.280;2023-04-24T08:48:39;16.70;99.90
26262;DHT22;13988;52.446;13.280;2023-04-24T08:51:07;16.90;99.90
26262;DHT22;13988;52.446;13.280;2023-04-24T08:53:33;16.60;99.90
26262;DHT22;13988;52.446;13.280;2023-04-24T08:56:01;16.50;99.90
26262;DHT22;13988;52.446;13.280;2023-04-24T08:58:28;16.20;99.90
26262;DHT22;13988;52.446;13.280;2023-04-24T09:00:55;16.10;99.90
26262;DHT22;13988;52.446;13.280;2023-04-24T09:03:21;15.90;99.90
26262;DHT22;13988;52.446;13.280;2023-04-24T09:05:47;16.00;99.90
26262;DHT22;13988;52.446;13.280;2023-04-24T09:08:16;16.20;99.90
26262;DHT22;13988;52.446;13.280;2023-04-24T09:10:43;16.50;99.90
26262;DHT22;13988;52.446;13.280;2023-04-24T09:13:09;16.50;99.90
26262;DHT22;13988;52.446;13.280;2023-04-24T09:15:39;16.30;99.90
26262;DHT22;13988;52.446;13.280;2023-04-24T09:18:05;16.60;99.90
26262;DHT22;13988;52.446;13.280;2023-04-24T09:20:31;16.40;99.90
26262;DHT22;13988;52.446;13.280;2023-04-24T09:22:57;16.60;99.90
26262;DHT22;13988;52.446;13.280;2023-04-24T09:25:34;16.60;99.90
26262;DHT22;13988;52.446;13.280;2023-04-24T09:28:02;16.70;99.90
26262;DHT22;13988;52.446;13.280;2023-04-24T09:30:29;16.80;99.90
26262;DHT22;13988;52.446;13.280;2023-04-24T09:33:14;16.40;99.90
26262;DHT22;13988;52.446;13.280;2023-04-24T09:35:50;16.20;99.90
26262;DHT22;13988;52.446;13.280;2023-04-24T09:38:16;16.30;99.90
26262;DHT22;13988;52.446;13.280;2023-04-24T09:40:42;16.30;99.90
26262;DHT22;13988;52.446;13.280;2023-04-24T09:43:11;16.60;99.90
26262;DHT22;13988;52.446;13.280;2023-04-24T09:45:38;16.50;99.90
26262;DHT22;13988;52.446;13.280;2023-04-24T09:48:05;16.60;99.90
26262;DHT22;13988;52.446;13.280;2023-04-24T09:50:32;17.00;99.90
26262;DHT22;13988;52.446;13.280;2023-04-24T09:53:02;16.90;99.90
26262;DHT22;13988;52.446;13.280;2023-04-24T09:55:29;17.20;99.90
26262;DHT22;13988;52.446;13.280;2023-04-24T09:57:57;17.20;99.90
26262;DHT22;13988;52.446;13.280;2023-04-24T10:00:28;17.10;99.90
26262;DHT22;13988;52.446;13.280;2023-04-24T10:02:57;17.10;99.90
26262;DHT22;13988;52.446;13.280;2023-04-24T10:05:24;17.40;99.90
26262;DHT22;13988;52.446;13.280;2023-04-24T10:07:51;17.40;99.90
26262;DHT22;13988;52.446;13.280;2023-04-24T10:10:16;17.40;99.90
26262;DHT22;13988;52.446;13.280;2023-04-24T10:12:43;17.10;99.90
26262;DHT22;13988;52.446;13.280;2023-04-24T10:15:12;16.80;99.90
26262;DHT22;13988;52.446;13.280;2023-04-24T10:17:39;17.10;99.90
26262;DHT22;13988;52.446;13.280;2023-04-24T10:20:06;17.00;99.90
26262;DHT22;13988;52.446;13.280;2023-04-24T10:22:32;16.80;99.90
26262;DHT22;13988;52.446;13.280;2023-04-24T10:24:59;16.50;99.90
26262;DHT22;13988;52.446;13.280;2023-04-24T10:27:26;16.60;99.90
26262;DHT22;13988;52.446;13.280;2023-04-24T10:29:53;16.60;99.90
26262;DHT22;13988;52.446;13.280;2023-04-24T10:32:19;16.30;99.90
26262;DHT22;13988;52.446;13.280;2023-04-24T10:34:44;16.10;99.90
26262;DHT22;13988;52.446;13.280;2023-04-24T10:37:10;16.10;99.90
26262;DHT22;13988;52.446;13.280;2023-04-24T10:39:36;16.00;99.90
26262;DHT22;13988;52.446;13.280;2023-04-24T10:42:14;16.00;99.90
26262;DHT22;13988;52.446;13.280;2023-04-24T10:44:41;16.20;99.90
26262;DHT22;13988;52.446;13.280;2023-04-24T10:47:12;16.40;99.90
26262;DHT22;13988;52.446;13.280;2023-04-24T10:49:38;16.30;99.90
26262;DHT22;13988;52.446;13.280;2023-04-24T10:52:04;16.50;99.90
26262;DHT22;13988;52.446;13.280;2023-04-24T10:54:47;16.90;99.90
26262;DHT22;13988;52.446;13.280;2023-04-24T11:02:38;17.60;99.90
26262;DHT22;13988;52.446;13.280;2023-04-24T11:05:04;17.80;99.90
26262;DHT22;13988;52.446;13.280;2023-04-24T11:07:30;18.00;99.90
26262;DHT22;13988;52.446;13.280;2023-04-24T11:10:26;17.70;99.90
26262;DHT22;13988;52.446;13.280;2023-04-24T11:12:52;17.30;99.90
26262;DHT22;13988;52.446;13.280;2023-04-24T11:15:17;16.90;99.90
26262;DHT22;13988;52.446;13.280;2023-04-24T11:17:45;16.90;99.90
26262;DHT22;13988;52.446;13.280;2023-04-24T11:20:11;17.50;99.90
26262;DHT22;13988;52.446;13.280;2023-04-24T11:22:41;16.80;99.90
26262;DHT22;13988;52.446;13.280;2023-04-24T11:25:08;16.80;99.90
26262;DHT22;13988;52.446;13.280;2023-04-24T11:27:42;16.90;99.90
26262;DHT22;13988;52.446;13.280;2023-04-24T11:30:09;17.80;99.90
26262;DHT22;13988;52.446;13.280;2023-04-24T11:32:37;17.90;99.90
26262;DHT22;13988;52.446;13.280;2023-04-24T11:37:46;17.10;99.90
26262;DHT22;13988;52.446;13.280;2023-04-24T11:40:13;16.50;99.90
26262;DHT22;13988;52.446;13.280;2023-04-24T11:42:44;16.70;99.90
26262;DHT22;13988;52.446;13.280;2023-04-24T11:45:18;16.80;99.90
26262;DHT22;13988;52.446;13.280;2023-04-24T11:47:44;16.90;99.90
26262;DHT22;13988;52.446;13.280;2023-04-24T11:50:15;17.00;99.90
26262;DHT22;13988;52.446;13.280;2023-04-24T11:52:43;17.90;99.90
26262;DHT22;13988;52.446;13.280;2023-04-24T11:57:51;17.90;99.90
26262;DHT22;13988;52.446;13.280;2023-04-24T12:00:20;17.60;99.90
26262;DHT22;13988;52.446;13.280;2023-04-24T12:02:46;17.50;99.90
26262;DHT22;13988;52.446;13.280;2023-04-24T12:05:26;17.40;99.90
26262;DHT22;13988;52.446;13.280;2023-04-24T12:07:53;17.40;99.90
26262;DHT22;13988;52.446;13.280;2023-04-24T12:10:23;17.50;99.90
26262;DHT22;13988;52.446;13.280;2023-04-24T12:12:49;17.80;99.90
26262;DHT22;13988;52.446;13.280;2023-04-24T12:15:17;17.80;99.90
26262;DHT22;13988;52.446;13.280;2023-04-24T12:17:44;18.30;99.90
26262;DHT22;13988;52.446;13.280;2023-04-24T12:20:10;18.00;99.90
26262;DHT22;13988;52.446;13.280;2023-04-24T12:22:54;17.70;99.90
26262;DHT22;13988;52.446;13.280;2023-04-24T12:25:21;17.80;99.90
26262;DHT22;13988;52.446;13.280;2023-04-24T12:28:08;17.80;99.90
26262;DHT22;13988;52.446;13.280;2023-04-24T12:30:47;17.70;99.00
26262;DHT22;13988;52.446;13.280;2023-04-24T12:33:20;19.50;90.90
26262;DHT22;13988;52.446;13.280;2023-04-24T12:35:47;19.40;82.80
26262;DHT22;13988;52.446;13.280;2023-04-24T12:38:13;20.10;81.60
26262;DHT22;13988;52.446;13.280;2023-04-24T12:40:41;19.80;76.60
26262;DHT22;13988;52.446;13.280;2023-04-24T12:43:18;20.40;76.10
26262;DHT22;13988;52.446;13.280;2023-04-24T12:45:44;18.60;82.50
26262;DHT22;13988;52.446;13.280;2023-04-24T12:48:10;18.20;81.80
26262;DHT22;13988;52.446;13.280;2023-04-24T12:50:36;18.10;83.70
26262;DHT22;13988;52.446;13.280;2023-04-24T12:53:03;18.30;82.40
26262;DHT22;13988;52.446;13.280;2023-04-24T12:55:28;17.90;79.60
26262;DHT22;13988;52.446;13.280;2023-04-24T12:57:54;17.70;81.20
26262;DHT22;13988;52.446;13.280;2023-04-24T13:00:20;18.20;83.00
26262;DHT22;13988;52.446;13.280;2023-04-24T13:02:46;19.70;77.50
26262;DHT22;13988;52.446;13.280;2023-04-24T13:05:12;20.70;78.40
26262;DHT22;13988;52.446;13.280;2023-04-24T13:07:39;20.20;72.90
26262;DHT22;13988;52.446;13.280;2023-04-24T13:10:05;20.20;71.80
26262;DHT22;13988;52.446;13.280;2023-04-24T13:12:31;18.60;75.00
26262;DHT22;13988;52.446;13.280;2023-04-24T13:14:57;18.60;76.60
26262;DHT22;13988;52.446;13.280;2023-04-24T13:17:24;19.50;71.00
26262;DHT22;13988;52.446;13.280;2023-04-24T13:19:51;20.10;70.70
26262;DHT22;13988;52.446;13.280;2023-04-24T13:22:17;20.70;67.30
26262;DHT22;13988;52.446;13.280;2023-04-24T13:24:46;20.20;70.50
26262;DHT22;13988;52.446;13.280;2023-04-24T13:27:15;19.70;68.00
26262;DHT22;13988;52.446;13.280;2023-04-24T13:29:40;20.60;67.30
26262;DHT22;13988;52.446;13.280;2023-04-24T13:32:07;20.80;68.80
26262;DHT22;13988;52.446;13.280;2023-04-24T13:34:33;19.90;65.50
26262;DHT22;13988;52.446;13.280;2023-04-24T13:37:00;19.70;66.90
26262;DHT22;13988;52.446;13.280;2023-04-24T13:39:25;20.10;66.20
26262;DHT22;13988;52.446;13.280;2023-04-24T13:41:51;19.20;65.30
26262;DHT22;13988;52.446;13.280;2023-04-24T13:44:18;17.90;67.10
26262;DHT22;13988;52.446;13.280;2023-04-24T13:46:45;18.40;68.80
26262;DHT22;13988;52.446;13.280;2023-04-24T13:49:15;19.10;65.60
26262;DHT22;13988;52.446;13.280;2023-04-24T13:51:41;18.10;68.90
26262;DHT22;13988;52.446;13.280;2023-04-24T13:54:07;17.70;71.20
26262;DHT22;13988;52.446;13.280;2023-04-24T13:56:33;17.40;71.80
26262;DHT22;13988;52.446;13.280;2023-04-24T13:58:58;18.20;71.00
26262;DHT22;13988;52.446;13.280;2023-04-24T14:01:24;18.30;70.30
26262;DHT22;13988;52.446;13.280;2023-04-24T14:03:55;18.60;68.30
26262;DHT22;13988;52.446;13.280;2023-04-24T14:06:22;18.40;74.00
26262;DHT22;13988;52.446;13.280;2023-04-24T14:08:48;19.20;67.50
26262;DHT22;13988;52.446;13.280;2023-04-24T14:11:14;19.50;65.10
26262;DHT22;13988;52.446;13.280;2023-04-24T14:13:41;18.00;63.80
26262;DHT22;13988;52.446;13.280;2023-04-24T14:16:08;17.80;67.60
26262;DHT22;13988;52.446;13.280;2023-04-24T14:18:33;18.00;68.00
26262;DHT22;13988;52.446;13.280;2023-04-24T14:20:59;19.00;66.90
26262;DHT22;13988;52.446;13.280;2023-04-24T14:23:26;18.50;66.70
26262;DHT22;13988;52.446;13.280;2023-04-24T14:25:52;17.60;69.10
26262;DHT22;13988;52.446;13.280;2023-04-24T14:28:19;17.10;68.90
26262;DHT22;13988;52.446;13.280;2023-04-24T14:30:45;17.10;71.20
26262;DHT22;13988;52.446;13.280;2023-04-24T14:33:11;17.60;71.70
26262;DHT22;13988;52.446;13.280;2023-04-24T14:35:38;18.40;69.20
26262;DHT22;13988;52.446;13.280;2023-04-24T14:38:04;18.50;68.00
26262;DHT22;13988;52.446;13.280;2023-04-24T14:40:30;19.30;66.70
26262;DHT22;13988;52.446;13.280;2023-04-24T14:42:56;17.30;69.40
26262;DHT22;13988;52.446;13.280;2023-04-24T14:45:23;16.70;70.10
26262;DHT22;13988;52.446;13.280;2023-04-24T14:47:49;17.20;70.90
26262;DHT22;13988;52.446;13.280;2023-04-24T14:50:15;17.80;70.20
26262;DHT22;13988;52.446;13.280;2023-04-24T14:52:40;17.50;69.50
26262;DHT22;13988;52.446;13.280;2023-04-24T14:55:06;17.40;71.60
26262;DHT22;13988;52.446;13.280;2023-04-24T14:57:33;17.60;71.70
26262;DHT22;13988;52.446;13.280;2023-04-24T14:59:59;17.70;70.90
26262;DHT22;13988;52.446;13.280;2023-04-24T15:02:24;17.90;71.60
26262;DHT22;13988;52.446;13.280;2023-04-24T15:04:50;18.10;72.30
26262;DHT22;13988;52.446;13.280;2023-04-24T15:07:16;18.10;70.50
26262;DHT22;13988;52.446;13.280;2023-04-24T15:09:41;17.70;69.80
26262;DHT22;13988;52.446;13.280;2023-04-24T15:12:08;17.50;70.90
26262;DHT22;13988;52.446;13.280;2023-04-24T15:14:35;17.60;69.40
26262;DHT22;13988;52.446;13.280;2023-04-24T15:17:00;17.50;70.50
26262;DHT22;13988;52.446;13.280;2023-04-24T15:19:26;17.10;70.90
26262;DHT22;13988;52.446;13.280;2023-04-24T15:21:52;16.80;73.40